createdAt,value
2022-08-27T02:00:50.546Z,5.60
2022-08-27T02:01:09.487Z,5.30
2022-08-27T02:01:30.111Z,4.90
2022-08-27T02:01:50.785Z,5.20
2022-08-27T02:02:11.368Z,5.10
2022-08-27T02:02:31.940Z,5.60
2022-08-27T02:02:52.540Z,5.20
2022-08-27T02:03:13.142Z,5.10
2022-08-27T02:03:34.354Z,5.20
2022-08-27T02:03:54.957Z,5.20
2022-08-27T02:04:15.555Z,5.20
2022-08-27T02:04:36.157Z,5.30
2022-08-27T02:04:56.755Z,5.40
2022-08-27T02:05:17.359Z,5.30
2022-08-27T02:05:43.805Z,4.80
2022-08-27T02:05:58.381Z,5.10
2022-08-27T02:06:18.979Z,5.20
2022-08-27T02:06:39.602Z,5.50
2022-08-27T02:07:00.194Z,5.70
2022-08-27T02:07:20.803Z,5.40
2022-08-27T02:07:41.393Z,5.30
2022-08-27T02:08:01.990Z,5.00
2022-08-27T02:08:23.978Z,5.20
2022-08-27T02:08:44.578Z,5.30
2022-08-27T02:09:04.985Z,5.60
2022-08-27T02:09:25.585Z,5.90
2022-08-27T02:09:46.185Z,6.00
2022-08-27T02:10:06.791Z,5.10
2022-08-27T02:10:27.382Z,4.70
2022-08-27T02:10:47.995Z,5.60
2022-08-27T02:11:08.623Z,5.50
2022-08-27T02:11:29.211Z,5.50
2022-08-27T02:11:49.814Z,5.50
2022-08-27T02:12:10.413Z,5.60
2022-08-27T02:12:31.014Z,5.80
2022-08-27T02:12:51.600Z,5.20
2022-08-27T02:13:12.011Z,4.80
2022-08-27T02:13:32.606Z,5.10
2022-08-27T02:13:53.194Z,5.60
2022-08-27T02:14:13.807Z,5.60
2022-08-27T02:14:34.406Z,5.50
2022-08-27T02:14:55.006Z,5.50
2022-08-27T02:15:22.122Z,5.50
2022-08-27T02:15:38.155Z,5.60
2022-08-27T02:15:58.653Z,5.70
2022-08-27T02:16:19.318Z,5.60
2022-08-27T02:16:39.958Z,5.20
2022-08-27T02:17:00.342Z,5.50
2022-08-27T02:17:20.946Z,5.60
2022-08-27T02:17:41.349Z,5.40
2022-08-27T02:18:01.945Z,5.70
2022-08-27T02:18:22.554Z,6.00
2022-08-27T02:18:43.152Z,5.70
2022-08-27T02:19:03.856Z,5.60
2022-08-27T02:19:24.445Z,5.60
2022-08-27T02:19:45.052Z,5.50
2022-08-27T02:20:05.463Z,5.50
2022-08-27T02:20:29.197Z,5.80
2022-08-27T02:20:49.997Z,6.20
2022-08-27T02:21:10.616Z,5.70
2022-08-27T02:21:31.216Z,5.50
2022-08-27T02:21:51.810Z,6.10
2022-08-27T02:22:12.410Z,5.90
2022-08-27T02:22:33.002Z,5.90
2022-08-27T02:22:53.599Z,5.80
2022-08-27T02:23:14.190Z,5.90
2022-08-27T02:23:34.789Z,6.20
2022-08-27T02:23:55.392Z,6.10
2022-08-27T02:24:15.993Z,5.70
2022-08-27T02:24:36.591Z,5.90
2022-08-27T02:24:57.190Z,5.80
2022-08-27T02:25:17.786Z,5.70
2022-08-27T02:25:38.391Z,5.70
2022-08-27T02:25:58.991Z,5.70
2022-08-27T02:26:19.604Z,5.60
2022-08-27T02:26:40.200Z,5.60
2022-08-27T02:27:00.802Z,5.80
2022-08-27T02:27:21.402Z,6.00
2022-08-27T02:27:42.000Z,6.10
2022-08-27T02:28:02.606Z,6.20
2022-08-27T02:28:23.222Z,6.00
2022-08-27T02:28:43.663Z,5.80
2022-08-27T02:29:04.248Z,6.10
2022-08-27T02:29:24.838Z,5.80
2022-08-27T02:29:46.726Z,5.90
2022-08-27T02:30:10.325Z,6.00
2022-08-27T02:30:30.925Z,6.10
2022-08-27T02:30:51.523Z,6.10
2022-08-27T02:31:12.170Z,5.90
2022-08-27T02:31:32.823Z,5.90
2022-08-27T02:31:53.408Z,6.10
2022-08-27T02:32:23.767Z,5.80
2022-08-27T02:32:34.424Z,5.70
2022-08-27T02:32:55.027Z,5.80
2022-08-27T02:33:15.625Z,5.80
2022-08-27T02:33:36.220Z,6.10
2022-08-27T02:33:56.823Z,5.80
2022-08-27T02:34:17.423Z,5.60
2022-08-27T02:34:38.022Z,5.50
2022-08-27T02:34:58.608Z,6.00
2022-08-27T02:35:19.206Z,5.70
2022-08-27T02:35:39.797Z,5.80
2022-08-27T02:36:00.398Z,5.80
2022-08-27T02:36:21.017Z,5.90
2022-08-27T02:36:41.610Z,6.00
2022-08-27T02:37:02.211Z,6.10
2022-08-27T02:37:22.816Z,6.40
2022-08-27T02:37:43.412Z,6.20
2022-08-27T02:38:04.041Z,6.00
2022-08-27T02:38:25.768Z,6.10
2022-08-27T02:38:47.176Z,5.90
2022-08-27T02:39:07.785Z,5.90
2022-08-27T02:39:28.384Z,5.90
2022-08-27T02:39:48.983Z,6.00
2022-08-27T02:40:09.696Z,5.60
2022-08-27T02:40:30.344Z,6.40
2022-08-27T02:40:50.912Z,6.30
2022-08-27T02:41:14.652Z,6.10
2022-08-27T02:41:35.241Z,5.80
2022-08-27T02:41:55.852Z,5.70
2022-08-27T02:42:16.449Z,5.90
2022-08-27T02:42:37.045Z,6.20
2022-08-27T02:42:57.645Z,6.30
2022-08-27T02:43:25.239Z,5.90
2022-08-27T02:43:38.642Z,6.10
2022-08-27T02:44:01.178Z,6.30
2022-08-27T02:44:21.901Z,6.30
2022-08-27T02:44:42.515Z,6.50
2022-08-27T02:45:02.917Z,6.20
2022-08-27T02:45:23.518Z,6.40
2022-08-27T02:45:44.106Z,6.00
2022-08-27T02:46:04.731Z,5.80
2022-08-27T02:46:25.359Z,6.10
2022-08-27T02:46:46.020Z,5.90
2022-08-27T02:47:06.587Z,6.10
2022-08-27T02:47:27.188Z,6.10
2022-08-27T02:47:47.786Z,6.10
2022-08-27T02:48:08.471Z,6.10
2022-08-27T02:48:29.103Z,6.20
2022-08-27T02:48:49.702Z,6.50
2022-08-27T02:49:10.303Z,6.20
2022-08-27T02:49:30.904Z,6.10
2022-08-27T02:49:51.498Z,6.30
2022-08-27T02:50:12.091Z,6.10
2022-08-27T02:50:32.692Z,6.40
2022-08-27T02:50:53.280Z,6.20
2022-08-27T02:51:13.898Z,6.20
2022-08-27T02:51:34.533Z,6.00
2022-08-27T02:51:55.129Z,6.40
2022-08-27T02:52:15.764Z,6.60
2022-08-27T02:52:36.348Z,6.20
2022-08-27T02:52:56.945Z,6.40
2022-08-27T02:53:17.549Z,6.60
2022-08-27T02:53:38.156Z,6.70
2022-08-27T02:53:58.766Z,6.50
2022-08-27T02:54:19.166Z,6.10
2022-08-27T02:54:39.753Z,6.20
2022-08-27T02:55:00.355Z,6.40
2022-08-27T02:55:20.787Z,6.40
2022-08-27T02:55:41.351Z,6.70
2022-08-27T02:56:01.953Z,6.30
2022-08-27T02:56:22.572Z,6.10
2022-08-27T02:56:43.965Z,6.30
2022-08-27T02:57:04.566Z,6.20
2022-08-27T02:57:25.160Z,6.10
2022-08-27T02:57:45.770Z,6.30
2022-08-27T02:58:06.374Z,6.50
2022-08-27T02:58:26.976Z,6.30
2022-08-27T02:58:47.565Z,6.50
2022-08-27T02:59:09.601Z,6.90
2022-08-27T02:59:30.195Z,6.10
2022-08-27T02:59:50.800Z,6.20
2022-08-27T03:00:11.405Z,6.40
2022-08-27T03:00:32.004Z,6.50
2022-08-27T03:00:52.605Z,6.30
2022-08-27T03:01:13.939Z,6.10
2022-08-27T03:01:34.624Z,6.20
2022-08-27T03:01:55.393Z,6.40
2022-08-27T03:02:16.159Z,6.20
2022-08-27T03:02:37.060Z,6.30
2022-08-27T03:02:57.900Z,6.20
2022-08-27T03:03:18.139Z,6.20
2022-08-27T03:03:38.735Z,6.10
2022-08-27T03:04:01.159Z,6.50
2022-08-27T03:04:21.745Z,6.20
2022-08-27T03:04:42.350Z,6.30
2022-08-27T03:05:02.949Z,6.60
2022-08-27T03:05:23.551Z,6.90
2022-08-27T03:05:44.160Z,6.40
2022-08-27T03:06:04.764Z,6.20
2022-08-27T03:06:25.379Z,6.20
2022-08-27T03:06:45.966Z,5.90
2022-08-27T03:07:06.569Z,6.40
2022-08-27T03:07:27.161Z,6.30
2022-08-27T03:07:47.782Z,6.30
2022-08-27T03:08:08.376Z,6.20
2022-08-27T03:08:28.976Z,6.50
2022-08-27T03:08:53.657Z,6.90
2022-08-27T03:09:14.308Z,6.40
2022-08-27T03:09:34.911Z,6.20
2022-08-27T03:09:55.507Z,6.10
2022-08-27T03:10:16.108Z,6.30
2022-08-27T03:10:36.704Z,6.30
2022-08-27T03:10:57.303Z,6.20
2022-08-27T03:11:17.921Z,6.30
2022-08-27T03:11:38.525Z,6.60
2022-08-27T03:11:59.130Z,7.20
2022-08-27T03:12:19.727Z,6.90
2022-08-27T03:12:43.247Z,7.00
2022-08-27T03:13:03.849Z,6.90
2022-08-27T03:13:24.445Z,6.60
2022-08-27T03:13:45.033Z,6.30
2022-08-27T03:14:05.632Z,6.20
2022-08-27T03:14:26.229Z,6.60
2022-08-27T03:14:46.831Z,6.50
2022-08-27T03:15:07.435Z,6.20
2022-08-27T03:15:28.030Z,6.40
2022-08-27T03:15:48.692Z,6.20
2022-08-27T03:16:11.335Z,6.60
2022-08-27T03:16:31.970Z,6.50
2022-08-27T03:16:52.546Z,6.60
2022-08-27T03:17:13.143Z,6.80
2022-08-27T03:17:33.741Z,6.80
2022-08-27T03:17:54.329Z,6.60
2022-08-27T03:18:14.928Z,6.60
2022-08-27T03:18:35.533Z,6.30
2022-08-27T03:18:56.127Z,6.80
2022-08-27T03:19:23.753Z,6.40
2022-08-27T03:19:37.146Z,6.00
2022-08-27T03:19:57.749Z,6.30
2022-08-27T03:20:18.350Z,6.80
2022-08-27T03:20:38.950Z,6.60
2022-08-27T03:20:59.551Z,6.60
2022-08-27T03:21:20.147Z,6.60
2022-08-27T03:21:40.758Z,6.30
2022-08-27T03:22:02.286Z,6.80
2022-08-27T03:22:22.877Z,6.90
2022-08-27T03:22:43.469Z,6.70
2022-08-27T03:23:04.067Z,6.60
2022-08-27T03:23:25.928Z,6.70
2022-08-27T03:23:46.529Z,6.20
2022-08-27T03:24:11.225Z,6.20
2022-08-27T03:24:27.350Z,7.00
2022-08-27T03:24:50.081Z,6.20
2022-08-27T03:25:10.673Z,6.10
2022-08-27T03:25:31.273Z,6.30
2022-08-27T03:25:53.633Z,6.40
2022-08-27T03:26:14.227Z,6.20
2022-08-27T03:26:34.838Z,6.80
2022-08-27T03:26:55.428Z,6.90
2022-08-27T03:27:16.032Z,6.40
2022-08-27T03:27:36.632Z,6.60
2022-08-27T03:27:57.237Z,6.40
2022-08-27T03:28:22.880Z,6.60
2022-08-27T03:28:38.306Z,6.20
2022-08-27T03:28:58.891Z,6.40
2022-08-27T03:29:19.492Z,6.80
2022-08-27T03:29:40.092Z,7.00
2022-08-27T03:30:03.791Z,6.80
2022-08-27T03:30:21.118Z,6.40
2022-08-27T03:30:41.712Z,6.50
2022-08-27T03:31:02.331Z,6.40
2022-08-27T03:31:22.962Z,6.50
2022-08-27T03:31:43.673Z,6.60
2022-08-27T03:32:04.266Z,6.50
2022-08-27T03:32:24.854Z,7.00
2022-08-27T03:32:45.452Z,6.50
2022-08-27T03:33:06.044Z,6.90
2022-08-27T03:33:26.647Z,7.00
2022-08-27T03:33:47.250Z,6.60
2022-08-27T03:34:07.850Z,6.70
2022-08-27T03:34:28.444Z,6.70
2022-08-27T03:34:49.041Z,6.70
2022-08-27T03:35:09.650Z,6.80
2022-08-27T03:35:30.254Z,6.70
2022-08-27T03:35:51.983Z,7.20
2022-08-27T03:36:12.740Z,7.40
2022-08-27T03:36:33.336Z,7.10
2022-08-27T03:36:53.949Z,7.20
2022-08-27T03:37:14.552Z,7.20
2022-08-27T03:37:35.155Z,6.90
2022-08-27T03:37:55.757Z,7.50
2022-08-27T03:38:16.366Z,7.40
2022-08-27T03:38:36.963Z,7.20
2022-08-27T03:38:57.566Z,7.10
2022-08-27T03:39:18.153Z,7.30
2022-08-27T03:39:38.751Z,7.20
2022-08-27T03:39:59.410Z,8.20
2022-08-27T03:40:20.107Z,7.20
2022-08-27T03:40:40.723Z,7.40
2022-08-27T03:41:01.324Z,7.90
2022-08-27T03:41:21.917Z,8.00
2022-08-27T03:41:54.639Z,7.50
2022-08-27T03:42:02.965Z,7.20
2022-08-27T03:42:23.583Z,7.40
2022-08-27T03:42:44.187Z,7.40
2022-08-27T03:43:04.781Z,8.10
2022-08-27T03:43:25.370Z,7.70
2022-08-27T03:43:45.964Z,7.20
2022-08-27T03:44:06.562Z,7.50
2022-08-27T03:44:27.170Z,7.70
2022-08-27T03:44:47.769Z,7.30
2022-08-27T03:45:08.375Z,7.60
2022-08-27T03:45:28.971Z,7.20
2022-08-27T03:46:00.919Z,7.20
2022-08-27T03:46:10.051Z,7.40
2022-08-27T03:46:30.672Z,7.60
2022-08-27T03:46:51.371Z,7.20
2022-08-27T03:47:12.020Z,7.10
2022-08-27T03:47:32.635Z,7.80
2022-08-27T03:47:53.234Z,7.80
2022-08-27T03:48:13.835Z,7.90
2022-08-27T03:48:34.436Z,7.80
2022-08-27T03:48:57.444Z,8.00
2022-08-27T03:49:20.442Z,7.90
2022-08-27T03:49:41.339Z,7.70
2022-08-27T03:50:01.950Z,7.50
2022-08-27T03:50:22.549Z,7.50
2022-08-27T03:50:42.948Z,7.60
2022-08-27T03:51:03.553Z,7.90
2022-08-27T03:51:24.159Z,7.60
2022-08-27T03:51:44.760Z,7.60
2022-08-27T03:52:05.372Z,8.00
2022-08-27T03:52:25.975Z,8.10
2022-08-27T03:52:46.378Z,7.80
2022-08-27T03:53:06.968Z,7.40
2022-08-27T03:53:27.571Z,7.80
2022-08-27T03:53:48.194Z,8.20
2022-08-27T03:54:08.790Z,7.80
2022-08-27T03:54:29.390Z,7.80
2022-08-27T03:54:49.980Z,7.90
2022-08-27T03:55:10.579Z,7.90
2022-08-27T03:55:32.319Z,7.90
2022-08-27T03:55:52.924Z,7.20
2022-08-27T03:56:13.528Z,7.70
2022-08-27T03:56:34.114Z,8.10
2022-08-27T03:56:54.717Z,7.90
2022-08-27T03:57:15.325Z,7.50
2022-08-27T03:57:35.924Z,8.00
2022-08-27T03:57:56.332Z,7.60
2022-08-27T03:58:16.943Z,7.20
2022-08-27T03:58:37.540Z,8.00
2022-08-27T03:58:59.662Z,7.60
2022-08-27T03:59:20.263Z,8.00
2022-08-27T03:59:40.664Z,7.60
2022-08-27T04:00:01.281Z,7.90
2022-08-27T04:00:21.866Z,7.90
2022-08-27T04:00:42.459Z,7.70
2022-08-27T04:01:02.873Z,7.60
2022-08-27T04:01:23.531Z,8.00
2022-08-27T04:01:44.171Z,8.30
2022-08-27T04:02:04.864Z,8.00
2022-08-27T04:02:25.594Z,7.60
2022-08-27T04:02:46.231Z,7.60
2022-08-27T04:03:06.859Z,7.70
2022-08-27T04:03:27.459Z,7.60
2022-08-27T04:03:48.069Z,7.60
2022-08-27T04:04:08.678Z,7.60
2022-08-27T04:04:29.267Z,7.70
2022-08-27T04:04:49.862Z,7.60
2022-08-27T04:05:10.464Z,7.60
2022-08-27T04:05:31.063Z,7.80
2022-08-27T04:05:51.664Z,8.10
2022-08-27T04:06:12.264Z,7.60
2022-08-27T04:06:32.867Z,7.70
2022-08-27T04:06:53.461Z,7.30
2022-08-27T04:07:13.881Z,7.90
2022-08-27T04:07:34.471Z,7.70
2022-08-27T04:07:55.079Z,7.90
2022-08-27T04:08:15.676Z,7.60
2022-08-27T04:08:36.277Z,7.80
2022-08-27T04:08:56.876Z,7.40
2022-08-27T04:09:17.477Z,7.80
2022-08-27T04:09:38.349Z,8.40
2022-08-27T04:09:58.946Z,8.00
2022-08-27T04:10:19.534Z,8.00
2022-08-27T04:10:40.133Z,8.00
2022-08-27T04:11:00.736Z,8.10
2022-08-27T04:11:21.334Z,7.60
2022-08-27T04:11:41.928Z,8.00
2022-08-27T04:12:02.527Z,7.70
2022-08-27T04:12:22.948Z,7.60
2022-08-27T04:12:43.555Z,7.20
2022-08-27T04:13:04.154Z,7.70
2022-08-27T04:13:24.560Z,7.60
2022-08-27T04:13:45.153Z,7.50
2022-08-27T04:14:13.867Z,8.00
2022-08-27T04:14:26.893Z,8.00
2022-08-27T04:14:46.583Z,7.70
2022-08-27T04:15:07.182Z,7.60
2022-08-27T04:15:27.783Z,7.80
2022-08-27T04:15:48.415Z,7.80
2022-08-27T04:16:09.059Z,7.30
2022-08-27T04:16:29.689Z,7.60
2022-08-27T04:16:50.749Z,7.50
2022-08-27T04:17:13.092Z,7.20
2022-08-27T04:17:33.703Z,7.30
2022-08-27T04:17:54.314Z,7.40
2022-08-27T04:18:14.912Z,7.80
2022-08-27T04:18:35.507Z,8.20
2022-08-27T04:18:56.107Z,7.70
2022-08-27T04:19:16.715Z,7.70
2022-08-27T04:19:37.318Z,7.20
2022-08-27T04:20:00.550Z,7.30
2022-08-27T04:20:34.682Z,7.30
2022-08-27T04:20:38.729Z,7.70
2022-08-27T04:20:59.326Z,7.50
2022-08-27T04:21:19.929Z,7.80
2022-08-27T04:21:40.534Z,7.80
2022-08-27T04:22:01.131Z,7.90
2022-08-27T04:22:21.740Z,7.50
2022-08-27T04:22:42.341Z,7.20
2022-08-27T04:23:02.935Z,7.30
2022-08-27T04:23:23.531Z,7.60
2022-08-27T04:23:43.933Z,7.70
2022-08-27T04:24:04.531Z,7.70
2022-08-27T04:24:25.120Z,7.80
2022-08-27T04:24:45.712Z,7.90
2022-08-27T04:25:06.311Z,7.40
2022-08-27T04:25:26.723Z,7.20
2022-08-27T04:25:47.123Z,7.20
2022-08-27T04:26:07.727Z,7.40
2022-08-27T04:26:28.324Z,8.20
2022-08-27T04:26:48.926Z,7.80
2022-08-27T04:27:09.528Z,7.10
2022-08-27T04:27:30.143Z,7.30
2022-08-27T04:27:52.009Z,7.30
2022-08-27T04:28:12.663Z,7.10
2022-08-27T04:28:36.523Z,7.30
2022-08-27T04:28:53.412Z,7.20
2022-08-27T04:29:14.000Z,7.30
2022-08-27T04:29:34.607Z,7.30
2022-08-27T04:29:55.191Z,7.30
2022-08-27T04:30:15.783Z,7.90
2022-08-27T04:30:36.370Z,7.60
2022-08-27T04:30:57.020Z,7.50
2022-08-27T04:31:17.662Z,6.90
2022-08-27T04:31:38.310Z,7.50
2022-08-27T04:31:58.901Z,7.80
2022-08-27T04:32:19.505Z,7.10
2022-08-27T04:32:40.294Z,7.80
2022-08-27T04:33:00.896Z,7.40
2022-08-27T04:33:21.507Z,6.90
2022-08-27T04:33:42.106Z,6.90
2022-08-27T04:34:02.521Z,7.00
2022-08-27T04:34:23.132Z,7.00
2022-08-27T04:34:43.733Z,7.20
2022-08-27T04:35:04.324Z,7.50
2022-08-27T04:35:24.926Z,7.20
2022-08-27T04:35:45.524Z,7.20
2022-08-27T04:36:06.121Z,6.80
2022-08-27T04:36:26.854Z,6.80
2022-08-27T04:36:47.451Z,6.70
2022-08-27T04:37:08.050Z,6.70
2022-08-27T04:37:28.660Z,7.00
2022-08-27T04:37:49.263Z,7.60
2022-08-27T04:38:10.132Z,7.40
2022-08-27T04:38:30.810Z,6.90
2022-08-27T04:38:53.066Z,7.10
2022-08-27T04:39:13.654Z,7.00
2022-08-27T04:39:34.253Z,7.00
2022-08-27T04:39:54.866Z,7.30
2022-08-27T04:40:15.475Z,7.50
2022-08-27T04:40:36.123Z,7.70
2022-08-27T04:40:56.687Z,7.00
2022-08-27T04:41:17.284Z,7.30
2022-08-27T04:41:37.882Z,7.50
2022-08-27T04:41:58.299Z,7.40
2022-08-27T04:42:18.885Z,7.20
2022-08-27T04:42:39.497Z,6.90
2022-08-27T04:43:00.096Z,6.80
2022-08-27T04:43:20.691Z,7.20
2022-08-27T04:43:41.283Z,7.30
2022-08-27T04:44:01.889Z,7.30
2022-08-27T04:44:22.491Z,7.50
2022-08-27T04:44:43.086Z,7.40
2022-08-27T04:45:03.679Z,7.10
2022-08-27T04:45:24.282Z,7.30
2022-08-27T04:45:44.877Z,7.50
2022-08-27T04:46:05.323Z,7.10
2022-08-27T04:46:26.035Z,6.50
2022-08-27T04:46:49.326Z,7.00
2022-08-27T04:47:10.142Z,6.70
2022-08-27T04:47:30.757Z,6.90
2022-08-27T04:47:51.361Z,7.60
2022-08-27T04:48:12.105Z,7.30
2022-08-27T04:48:32.682Z,7.10
2022-08-27T04:48:53.443Z,7.10
2022-08-27T04:49:15.327Z,7.40
2022-08-27T04:49:35.912Z,7.50
2022-08-27T04:49:56.513Z,7.50
2022-08-27T04:50:17.810Z,6.60
2022-08-27T04:50:39.854Z,6.70
2022-08-27T04:51:00.783Z,7.70
2022-08-27T04:51:22.683Z,7.50
2022-08-27T04:51:43.374Z,7.20
2022-08-27T04:52:03.990Z,7.40
2022-08-27T04:52:25.414Z,7.20
2022-08-27T04:52:46.027Z,7.30
2022-08-27T04:53:06.433Z,7.00
2022-08-27T04:53:27.030Z,6.60
2022-08-27T04:53:47.630Z,6.60
2022-08-27T04:54:08.224Z,6.90
2022-08-27T04:54:32.756Z,7.40
2022-08-27T04:54:53.839Z,7.10
2022-08-27T04:55:14.439Z,7.00
2022-08-27T04:55:35.038Z,7.20
2022-08-27T04:55:55.634Z,6.90
2022-08-27T04:56:16.221Z,6.80
2022-08-27T04:56:36.828Z,6.50
2022-08-27T04:56:57.225Z,6.70
2022-08-27T04:57:17.825Z,7.10
2022-08-27T04:57:38.442Z,7.10
2022-08-27T04:57:59.037Z,6.80
2022-08-27T04:58:19.640Z,6.60
2022-08-27T04:58:40.235Z,6.80
2022-08-27T04:59:00.834Z,7.00
2022-08-27T04:59:21.423Z,7.10
2022-08-27T04:59:42.011Z,6.10
2022-08-27T05:00:02.617Z,6.30
2022-08-27T05:00:23.219Z,6.70
2022-08-27T05:00:43.817Z,7.00
2022-08-27T05:01:04.416Z,6.60
2022-08-27T05:01:25.082Z,6.50
2022-08-27T05:01:45.708Z,6.50
2022-08-27T05:02:06.339Z,6.40
2022-08-27T05:02:26.924Z,6.50
2022-08-27T05:02:47.529Z,7.10
2022-08-27T05:03:08.126Z,7.00
2022-08-27T05:03:28.738Z,6.30
2022-08-27T05:03:49.338Z,6.20
2022-08-27T05:04:09.931Z,6.80
2022-08-27T05:04:30.521Z,6.70
2022-08-27T05:04:51.175Z,7.00
2022-08-27T05:05:15.828Z,6.90
2022-08-27T05:05:36.682Z,6.40
2022-08-27T05:05:57.024Z,6.10
2022-08-27T05:06:17.626Z,6.40
2022-08-27T05:06:38.224Z,6.80
2022-08-27T05:06:58.824Z,6.90
2022-08-27T05:07:19.436Z,6.90
2022-08-27T05:07:39.837Z,6.90
2022-08-27T05:08:00.441Z,6.80
2022-08-27T05:08:21.048Z,6.40
2022-08-27T05:08:41.641Z,6.10
2022-08-27T05:09:02.242Z,6.60
2022-08-27T05:09:24.553Z,6.50
2022-08-27T05:09:47.066Z,6.00
2022-08-27T05:10:07.666Z,6.30
2022-08-27T05:10:28.256Z,6.30
2022-08-27T05:10:48.852Z,6.40
2022-08-27T05:11:09.458Z,6.60
2022-08-27T05:11:30.052Z,6.70
2022-08-27T05:11:50.663Z,6.60
2022-08-27T05:12:11.251Z,6.50
2022-08-27T05:12:31.859Z,6.80
2022-08-27T05:12:52.554Z,7.30
2022-08-27T05:13:13.145Z,6.50
2022-08-27T05:13:33.751Z,6.40
2022-08-27T05:13:54.334Z,6.90
2022-08-27T05:14:14.935Z,6.70
2022-08-27T05:14:35.531Z,6.60
2022-08-27T05:14:56.121Z,6.80
2022-08-27T05:15:16.723Z,6.10
2022-08-27T05:15:37.364Z,6.10
2022-08-27T05:15:58.010Z,6.70
2022-08-27T05:16:18.697Z,6.50
2022-08-27T05:16:39.287Z,6.50
2022-08-27T05:16:59.892Z,6.40
2022-08-27T05:17:20.495Z,6.30
2022-08-27T05:17:41.114Z,6.50
2022-08-27T05:18:01.713Z,6.30
2022-08-27T05:18:22.312Z,6.40
2022-08-27T05:18:48.541Z,6.30
2022-08-27T05:19:03.328Z,6.30
2022-08-27T05:19:23.927Z,6.60
2022-08-27T05:19:44.520Z,6.00
2022-08-27T05:20:05.119Z,6.60
2022-08-27T05:20:25.735Z,6.10
2022-08-27T05:20:46.327Z,6.20
2022-08-27T05:21:06.735Z,6.50
2022-08-27T05:21:27.139Z,6.20
2022-08-27T05:21:47.737Z,6.50
2022-08-27T05:22:08.338Z,6.40
2022-08-27T05:22:28.937Z,6.40
2022-08-27T05:22:49.540Z,6.20
2022-08-27T05:23:10.137Z,6.10
2022-08-27T05:23:30.738Z,6.00
2022-08-27T05:23:51.630Z,6.20
2022-08-27T05:24:12.221Z,6.30
2022-08-27T05:24:32.818Z,6.30
2022-08-27T05:24:53.432Z,6.00
2022-08-27T05:25:14.026Z,5.70
2022-08-27T05:25:34.621Z,5.90
2022-08-27T05:25:55.323Z,6.10
2022-08-27T05:26:15.905Z,6.10
2022-08-27T05:26:36.503Z,6.00
2022-08-27T05:26:56.901Z,5.90
2022-08-27T05:27:17.502Z,6.10
2022-08-27T05:27:38.098Z,6.10
2022-08-27T05:27:58.519Z,5.90
2022-08-27T05:28:19.133Z,6.50
2022-08-27T05:28:40.754Z,6.00
2022-08-27T05:29:02.376Z,5.80
2022-08-27T05:29:23.060Z,5.90
2022-08-27T05:29:43.666Z,5.80
2022-08-27T05:30:04.275Z,5.80
2022-08-27T05:30:24.864Z,6.20
2022-08-27T05:30:45.520Z,6.00
2022-08-27T05:31:05.943Z,6.20
2022-08-27T05:31:26.648Z,6.00
2022-08-27T05:31:47.260Z,5.70
2022-08-27T05:32:07.868Z,6.00
2022-08-27T05:32:28.466Z,6.40
2022-08-27T05:32:49.060Z,6.00
2022-08-27T05:33:09.672Z,5.90
2022-08-27T05:33:30.285Z,6.00
2022-08-27T05:33:50.873Z,6.10
2022-08-27T05:34:16.512Z,6.00
2022-08-27T05:34:32.368Z,6.00
2022-08-27T05:34:53.115Z,6.10
2022-08-27T05:35:15.683Z,6.00
2022-08-27T05:35:36.438Z,5.80
2022-08-27T05:35:57.037Z,6.20
2022-08-27T05:36:17.442Z,6.30
2022-08-27T05:36:38.039Z,6.20
2022-08-27T05:36:58.558Z,6.00
2022-08-27T05:37:19.195Z,6.10
2022-08-27T05:37:39.792Z,6.10
2022-08-27T05:38:00.493Z,5.60
2022-08-27T05:38:21.129Z,5.80
2022-08-27T05:38:41.740Z,5.80
2022-08-27T05:39:02.342Z,5.90
2022-08-27T05:39:22.997Z,5.90
2022-08-27T05:39:43.686Z,6.00
2022-08-27T05:40:04.521Z,6.00
2022-08-27T05:40:25.186Z,6.20
2022-08-27T05:40:45.890Z,6.30
2022-08-27T05:41:06.464Z,5.80
2022-08-27T05:41:31.738Z,5.90
2022-08-27T05:41:47.670Z,6.20
2022-08-27T05:42:08.261Z,6.00
2022-08-27T05:42:28.855Z,5.80
2022-08-27T05:42:51.223Z,5.70
2022-08-27T05:43:11.923Z,5.80
2022-08-27T05:43:32.519Z,5.90
2022-08-27T05:43:53.115Z,6.00
2022-08-27T05:44:39.445Z,6.00
2022-08-27T05:44:41.023Z,6.00
2022-08-27T05:44:54.552Z,6.50
2022-08-27T05:45:15.150Z,6.20
2022-08-27T05:45:35.793Z,5.80
2022-08-27T05:45:56.479Z,6.10
2022-08-27T05:46:17.139Z,6.10
2022-08-27T05:46:37.835Z,6.30
2022-08-27T05:46:58.397Z,6.20
2022-08-27T05:47:18.993Z,6.30
2022-08-27T05:47:44.447Z,6.20
2022-08-27T05:48:00.020Z,5.90
2022-08-27T05:48:20.621Z,6.60
2022-08-27T05:48:41.225Z,6.30
2022-08-27T05:49:01.826Z,6.10
2022-08-27T05:49:22.425Z,6.00
2022-08-27T05:49:43.023Z,5.80
2022-08-27T05:50:03.612Z,5.80
2022-08-27T05:50:24.208Z,5.70
2022-08-27T05:50:44.808Z,5.70
2022-08-27T05:51:05.410Z,6.20
2022-08-27T05:51:26.312Z,6.00
2022-08-27T05:51:46.926Z,5.50
2022-08-27T05:52:07.525Z,6.00
2022-08-27T05:52:28.119Z,6.20
2022-08-27T05:52:48.721Z,5.90
2022-08-27T05:53:09.342Z,6.20
2022-08-27T05:53:29.940Z,5.40
2022-08-27T05:53:50.543Z,5.60
2022-08-27T05:54:11.141Z,6.10
2022-08-27T05:54:31.741Z,6.40
2022-08-27T05:54:52.346Z,6.20
2022-08-27T05:55:12.748Z,6.40
2022-08-27T05:55:33.345Z,6.00
2022-08-27T05:55:53.938Z,6.00
2022-08-27T05:56:14.535Z,6.20
2022-08-27T05:56:35.148Z,6.00
2022-08-27T05:56:55.746Z,6.00
2022-08-27T05:57:16.336Z,6.00
2022-08-27T05:57:36.939Z,5.70
2022-08-27T05:57:57.559Z,5.40
2022-08-27T05:58:18.155Z,5.70
2022-08-27T05:58:38.754Z,5.80
2022-08-27T05:58:59.356Z,6.10
2022-08-27T05:59:19.956Z,5.90
2022-08-27T05:59:40.557Z,5.90
2022-08-27T06:00:01.145Z,6.00
2022-08-27T06:00:21.746Z,6.00
2022-08-27T06:00:42.344Z,5.80
2022-08-27T06:01:05.978Z,5.80
2022-08-27T06:01:23.358Z,6.10
2022-08-27T06:01:43.954Z,5.80
2022-08-27T06:02:04.553Z,5.80
2022-08-27T06:02:25.027Z,6.00
2022-08-27T06:02:45.676Z,6.00
2022-08-27T06:03:06.272Z,6.40
2022-08-27T06:03:26.876Z,5.80
2022-08-27T06:03:47.472Z,5.30
2022-08-27T06:04:08.092Z,5.50
2022-08-27T06:04:28.687Z,5.50
2022-08-27T06:04:49.318Z,5.30
2022-08-27T06:05:09.925Z,5.70
2022-08-27T06:05:30.515Z,5.50
2022-08-27T06:05:51.097Z,6.10
2022-08-27T06:06:11.698Z,6.30
2022-08-27T06:06:32.295Z,5.70
2022-08-27T06:06:52.898Z,6.00
2022-08-27T06:07:13.498Z,6.40
2022-08-27T06:07:34.095Z,6.10
2022-08-27T06:07:54.697Z,6.30
2022-08-27T06:08:15.308Z,6.10
2022-08-27T06:08:35.909Z,6.10
2022-08-27T06:08:56.508Z,6.10
2022-08-27T06:09:16.910Z,5.50
2022-08-27T06:09:37.498Z,5.80
2022-08-27T06:09:58.096Z,5.80
2022-08-27T06:10:20.763Z,6.10
2022-08-27T06:10:41.374Z,6.20
2022-08-27T06:11:01.971Z,5.60
2022-08-27T06:11:22.571Z,6.00
2022-08-27T06:11:43.180Z,6.20
2022-08-27T06:12:03.775Z,5.90
2022-08-27T06:12:27.086Z,5.80
2022-08-27T06:12:48.976Z,6.00
2022-08-27T06:13:09.578Z,6.40
2022-08-27T06:13:30.191Z,6.40
2022-08-27T06:13:50.791Z,6.00
2022-08-27T06:14:11.394Z,6.10
2022-08-27T06:14:31.791Z,6.20
2022-08-27T06:14:52.389Z,6.00
2022-08-27T06:15:14.742Z,6.20
2022-08-27T06:15:35.390Z,6.20
2022-08-27T06:15:55.966Z,6.00
2022-08-27T06:16:16.590Z,6.00
2022-08-27T06:16:37.194Z,5.90
2022-08-27T06:16:57.789Z,5.50
2022-08-27T06:17:18.185Z,5.90
2022-08-27T06:17:38.782Z,5.90
2022-08-27T06:17:59.378Z,5.70
2022-08-27T06:18:19.997Z,5.60
2022-08-27T06:18:40.600Z,5.80
2022-08-27T06:19:01.000Z,5.50
2022-08-27T06:19:21.604Z,5.90
2022-08-27T06:19:42.209Z,5.70
2022-08-27T06:20:02.820Z,5.80
2022-08-27T06:20:23.404Z,5.90
2022-08-27T06:20:43.810Z,5.80
2022-08-27T06:21:04.406Z,6.10
2022-08-27T06:21:25.090Z,6.10
2022-08-27T06:21:45.636Z,5.90
2022-08-27T06:22:09.640Z,5.80
2022-08-27T06:22:31.299Z,6.00
2022-08-27T06:22:51.699Z,6.00
2022-08-27T06:23:12.300Z,5.80
2022-08-27T06:23:32.915Z,5.90
2022-08-27T06:23:53.518Z,5.80
2022-08-27T06:24:14.120Z,5.80
2022-08-27T06:24:34.718Z,5.60
2022-08-27T06:24:55.320Z,5.60
2022-08-27T06:25:15.921Z,5.60
2022-08-27T06:25:36.522Z,5.80
2022-08-27T06:25:57.114Z,5.70
2022-08-27T06:26:17.707Z,5.90
2022-08-27T06:26:38.307Z,5.70
2022-08-27T06:26:58.904Z,5.40
2022-08-27T06:27:19.504Z,5.50
2022-08-27T06:27:40.104Z,5.60
2022-08-27T06:28:00.713Z,5.40
2022-08-27T06:28:21.324Z,5.70
2022-08-27T06:28:41.926Z,6.00
2022-08-27T06:29:02.530Z,5.90
2022-08-27T06:29:23.126Z,6.00
2022-08-27T06:29:43.714Z,6.20
2022-08-27T06:30:04.311Z,6.30
2022-08-27T06:30:24.904Z,6.10
2022-08-27T06:30:45.598Z,5.70
2022-08-27T06:31:06.238Z,6.20
2022-08-27T06:31:26.668Z,6.00
2022-08-27T06:31:47.295Z,6.10
2022-08-27T06:32:07.893Z,6.10
2022-08-27T06:32:28.502Z,5.90
2022-08-27T06:32:49.099Z,5.80
2022-08-27T06:33:09.705Z,5.70
2022-08-27T06:33:30.321Z,5.70
2022-08-27T06:33:50.908Z,5.70
2022-08-27T06:34:11.511Z,5.70
2022-08-27T06:34:32.112Z,5.60
2022-08-27T06:34:52.712Z,5.50
2022-08-27T06:35:13.305Z,6.00
2022-08-27T06:35:34.161Z,5.50
2022-08-27T06:35:54.727Z,5.20
2022-08-27T06:36:15.338Z,5.40